Time,TemperatureF,DewpointF,PressureIn,WindDirection,WindDirectionDegrees,WindSpeedMPH,WindSpeedGustMPH,Humidity,HourlyPrecipIn,Conditions,Clouds,dailyrainin,SolarRadiationWatts/m^2,SoftwareType,DateUTC
2013-04-06 00:02:00,43.0,35.0,-100.00,South,175,3.0,5.0,73,-99.99,,,-99.99,0.000000,,2013-04-06 06:02:00,
2013-04-06 00:12:00,41.0,35.0,-100.00,South,171,7.0,8.0,80,-99.99,,,-99.99,0.000000,,2013-04-06 06:12:00,
2013-04-06 00:21:00,41.0,36.0,-100.00,SSW,198,5.0,7.0,80,-99.99,,,-99.99,0.000000,,2013-04-06 06:21:00,
2013-04-06 00:32:00,40.0,35.0,-100.00,SSE,159,5.0,6.0,79,-99.99,,,-99.99,0.000000,,2013-04-06 06:32:00,
2013-04-06 00:42:00,40.0,35.0,-100.00,SE,137,3.0,5.0,82,-99.99,,,-99.99,0.000000,,2013-04-06 06:42:00,
2013-04-06 00:52:00,40.0,35.0,-100.00,South,170,6.0,7.0,82,-99.99,,,-99.99,0.000000,,2013-04-06 06:52:00,
2013-04-06 01:02:00,40.0,35.0,-100.00,SE,145,3.0,5.0,81,-99.99,,,-99.99,0.000000,,2013-04-06 07:02:00,
2013-04-06 01:12:00,40.0,35.0,-100.00,South,174,5.0,6.0,82,-99.99,,,-99.99,0.000000,,2013-04-06 07:12:00,
2013-04-06 01:22:00,39.0,35.0,-100.00,South,191,5.0,8.0,83,-99.99,,,-99.99,0.000000,,2013-04-06 07:22:00,
2013-04-06 01:32:00,40.0,35.0,-100.00,SSE,166,3.0,6.0,81,-99.99,,,-99.99,0.000000,,2013-04-06 07:32:00,
2013-04-06 01:42:00,40.0,35.0,-100.00,SSW,202,4.0,5.0,83,-99.99,,,-99.99,0.000000,,2013-04-06 07:42:00,
2013-04-06 01:52:00,39.0,35.0,-100.00,SSW,209,4.0,5.0,84,-99.99,,,-99.99,0.000000,,2013-04-06 07:52:00,
2013-04-06 02:02:00,39.0,35.0,-100.00,South,171,3.0,4.0,84,-99.99,,,-99.99,0.000000,,2013-04-06 08:02:00,
2013-04-06 02:12:00,39.0,35.0,-100.00,SSE,165,2.0,2.0,85,-99.99,,,-99.99,0.000000,,2013-04-06 08:12:00,
2013-04-06 02:22:00,39.0,35.0,-100.00,South,180,3.0,4.0,86,-99.99,,,-99.99,0.000000,,2013-04-06 08:22:00,
2013-04-06 02:32:00,38.0,34.0,-100.00,SE,144,4.0,4.0,85,-99.99,,,-99.99,0.000000,,2013-04-06 08:32:00,
2013-04-06 02:42:00,38.0,35.0,-100.00,SE,138,3.0,4.0,87,-99.99,,,-99.99,0.000000,,2013-04-06 08:42:00,
2013-04-06 02:52:00,39.0,35.0,-100.00,North,0,0.0,1.0,86,-99.99,,,-99.99,0.000000,,2013-04-06 08:52:00,
2013-04-06 03:02:00,39.0,35.0,-100.00,SSE,161,2.0,2.0,85,-99.99,,,-99.99,0.000000,,2013-04-06 09:02:00,
2013-04-06 03:12:00,38.0,35.0,-100.00,SE,136,1.0,1.0,86,-99.99,,,-99.99,0.000000,,2013-04-06 09:12:00,
2013-04-06 03:22:00,39.0,35.0,-100.00,SSW,192,2.0,3.0,87,-99.99,,,-99.99,0.000000,,2013-04-06 09:22:00,
2013-04-06 03:32:00,38.0,34.0,-100.00,SE,141,2.0,3.0,86,-99.99,,,-99.99,0.000000,,2013-04-06 09:32:00,
2013-04-06 03:42:00,38.0,35.0,-100.00,South,185,1.0,1.0,87,-99.99,,,-99.99,0.000000,,2013-04-06 09:42:00,
2013-04-06 03:52:00,39.0,35.0,-100.00,WSW,248,0.0,2.0,85,-99.99,,,-99.99,0.000000,,2013-04-06 09:52:00,
2013-04-06 04:02:00,39.0,35.0,-100.00,North,352,3.0,4.0,86,-99.99,,,-99.99,0.000000,,2013-04-06 10:02:00,
2013-04-06 04:12:00,38.0,34.0,-100.00,NNW,328,1.0,4.0,86,-99.99,,,-99.99,0.000000,,2013-04-06 10:12:00,
2013-04-06 04:22:00,36.0,33.0,-100.00,NW,320,4.0,5.0,87,-99.99,,,-99.99,0.000000,,2013-04-06 10:22:00,
2013-04-06 04:32:00,36.0,33.0,-100.00,NW,317,3.0,4.0,88,-99.99,,,-99.99,0.000000,,2013-04-06 10:32:00,
2013-04-06 04:42:00,36.0,33.0,-100.00,North,352,3.0,4.0,90,-99.99,,,-99.99,0.000000,,2013-04-06 10:42:00,
2013-04-06 04:52:00,36.0,33.0,-100.00,NW,319,4.0,5.0,89,-99.99,,,-99.99,0.000000,,2013-04-06 10:52:00,
2013-04-06 05:02:00,37.0,34.0,-100.00,NW,310,1.0,2.0,90,-99.99,,,-99.99,0.000000,,2013-04-06 11:02:00,
2013-04-06 05:12:00,36.0,33.0,-100.00,WNW,283,3.0,4.0,89,-99.99,,,-99.99,0.000000,,2013-04-06 11:12:00,
2013-04-06 05:22:00,36.0,33.0,-100.00,North,350,4.0,4.0,90,-99.99,,,-99.99,0.000000,,2013-04-06 11:22:00,
2013-04-06 05:32:00,37.0,34.0,-100.00,North,1,4.0,4.0,91,-99.99,,,-99.99,0.000000,,2013-04-06 11:32:00,
2013-04-06 05:42:00,36.0,34.0,-100.00,NW,305,1.0,3.0,90,-99.99,,,-99.99,0.000000,,2013-04-06 11:42:00,
2013-04-06 05:52:00,35.0,33.0,-100.00,WSW,243,1.0,2.0,90,-99.99,,,-99.99,0.000000,,2013-04-06 11:52:00,
2013-04-06 06:01:00,35.0,33.0,-100.00,SE,144,1.0,2.0,90,-99.99,,,-99.99,0.000000,,2013-04-06 12:01:00,
2013-04-06 06:12:00,35.0,33.0,-100.00,South,174,1.0,2.0,90,-99.99,,,-99.99,0.000000,,2013-04-06 12:12:00,
2013-04-06 06:21:00,36.0,33.0,-100.00,SSE,159,1.0,2.0,90,-99.99,,,-99.99,0.000000,,2013-04-06 12:21:00,
2013-04-06 06:32:00,36.0,34.0,-100.00,SSE,166,1.0,3.0,91,-99.99,,,-99.99,0.000000,,2013-04-06 12:32:00,
2013-04-06 06:42:00,35.0,33.0,-100.00,SSE,155,3.0,3.0,91,-99.99,,,-99.99,0.000000,,2013-04-06 12:42:00,
2013-04-06 06:52:00,35.0,33.0,-100.00,SSE,163,1.0,2.0,91,-99.99,,,-99.99,0.000000,,2013-04-06 12:52:00,
2013-04-06 07:02:00,36.0,33.0,-100.00,North,0,0.0,0.0,91,-99.99,,,-99.99,0.000000,,2013-04-06 13:02:00,
2013-04-06 07:12:00,36.0,33.0,-100.00,West,263,1.0,1.0,91,-99.99,,,-99.99,0.000000,,2013-04-06 13:12:00,
2013-04-06 07:23:00,36.0,33.0,-100.00,SW,229,0.0,1.0,91,-99.99,,,-99.99,0.120000,,2013-04-06 13:23:00,
2013-04-06 07:32:00,35.0,33.0,-100.00,SSE,147,2.0,2.0,91,-99.99,,,-99.99,0.670000,,2013-04-06 13:32:00,
2013-04-06 07:42:00,36.0,34.0,-100.00,SSE,152,1.0,3.0,92,-99.99,,,-99.99,3.720000,,2013-04-06 13:42:00,
2013-04-06 07:52:00,36.0,34.0,-100.00,NW,322,0.0,1.0,91,-99.99,,,-99.99,11.600000,,2013-04-06 13:52:00,
2013-04-06 08:03:00,36.0,33.0,-100.00,NNE,27,0.0,1.0,91,-99.99,,,-99.99,24.850000,,2013-04-06 14:03:00,
2013-04-06 08:12:00,36.0,34.0,-100.00,SE,137,2.0,2.0,91,-99.99,,,-99.99,35.139999,,2013-04-06 14:12:00,
2013-04-06 08:21:00,37.0,35.0,-100.00,SW,232,0.0,3.0,92,-99.99,,,-99.99,45.950001,,2013-04-06 14:21:00,
2013-04-06 08:32:00,37.0,35.0,-100.00,WNW,295,1.0,1.0,91,-99.99,,,-99.99,48.110001,,2013-04-06 14:32:00,
2013-04-06 08:42:00,37.0,35.0,-100.00,NNW,337,2.0,3.0,90,-99.99,,,-99.99,50.299999,,2013-04-06 14:42:00,
2013-04-06 08:52:00,37.0,35.0,-100.00,NNW,337,2.0,3.0,90,-99.99,,,-99.99,50.299999,,2013-04-06 14:52:00,
2013-04-06 09:01:00,40.0,37.0,-100.00,North,8,1.0,2.0,89,-99.99,,,-99.99,136.600006,,2013-04-06 15:01:00,
2013-04-06 09:11:00,41.0,37.0,-100.00,WSW,250,2.0,3.0,86,-99.99,,,-99.99,142.000000,,2013-04-06 15:11:00,
2013-04-06 09:22:00,43.0,37.0,-100.00,WNW,283,1.0,2.0,82,-99.99,,,-99.99,255.199997,,2013-04-06 15:22:00,
2013-04-06 09:32:00,44.0,38.0,-100.00,North,0,0.0,1.0,78,-99.99,,,-99.99,200.899994,,2013-04-06 15:32:00,
2013-04-06 09:42:00,47.0,39.0,-100.00,East,100,0.0,3.0,74,-99.99,,,-99.99,379.500000,,2013-04-06 15:42:00,
2013-04-06 09:52:00,47.0,38.0,-100.00,NE,44,1.0,2.0,71,-99.99,,,-99.99,357.500000,,2013-04-06 15:52:00,
2013-04-06 10:04:00,47.0,37.0,-100.00,South,178,3.0,4.0,69,-99.99,,,-99.99,350.899994,,2013-04-06 16:04:00,
2013-04-06 10:16:00,48.0,38.0,-100.00,SSW,203,1.0,3.0,69,-99.99,,,-99.99,417.100006,,2013-04-06 16:16:00,
2013-04-06 10:22:00,49.0,38.0,-100.00,SSW,208,1.0,3.0,65,-99.99,,,-99.99,494.100006,,2013-04-06 16:22:00,
2013-04-06 10:32:00,53.0,38.0,-100.00,South,172,1.0,3.0,55,-99.99,,,-99.99,570.400024,,2013-04-06 16:32:00,
2013-04-06 10:42:00,53.0,37.0,-100.00,SE,134,3.0,5.0,54,-99.99,,,-99.99,608.299988,,2013-04-06 16:42:00,
2013-04-06 10:52:00,54.0,36.0,-100.00,SE,145,5.0,6.0,50,-99.99,,,-99.99,650.700012,,2013-04-06 16:52:00,
2013-04-06 11:02:00,55.0,36.0,-100.00,ESE,109,6.0,7.0,48,-99.99,,,-99.99,634.799988,,2013-04-06 17:02:00,
2013-04-06 11:12:00,55.0,37.0,-100.00,South,189,4.0,8.0,49,-99.99,,,-99.99,601.099976,,2013-04-06 17:12:00,
2013-04-06 11:22:00,55.0,37.0,-100.00,SSW,204,4.0,5.0,50,-99.99,,,-99.99,515.700012,,2013-04-06 17:22:00,
2013-04-06 11:32:00,57.0,35.0,-100.00,East,79,4.0,7.0,44,-99.99,,,-99.99,542.099976,,2013-04-06 17:32:00,
2013-04-06 11:42:00,57.0,37.0,-100.00,East,95,4.0,7.0,46,-99.99,,,-99.99,620.200012,,2013-04-06 17:42:00,
2013-04-06 11:52:00,58.0,36.0,-100.00,ESE,120,5.0,7.0,42,-99.99,,,-99.99,646.500000,,2013-04-06 17:52:00,
2013-04-06 12:02:00,58.0,36.0,-100.00,ESE,107,5.0,8.0,43,-99.99,,,-99.99,638.700012,,2013-04-06 18:02:00,
2013-04-06 12:12:00,59.0,36.0,-100.00,East,98,7.0,9.0,41,-99.99,,,-99.99,568.500000,,2013-04-06 18:12:00,
2013-04-06 12:22:00,59.0,35.0,-100.00,East,101,4.0,7.0,40,-99.99,,,-99.99,506.899994,,2013-04-06 18:22:00,
2013-04-06 12:32:00,59.0,35.0,-100.00,ESE,104,10.0,10.0,40,-99.99,,,-99.99,531.400024,,2013-04-06 18:32:00,
2013-04-06 12:42:00,59.0,35.0,-100.00,ESE,111,11.0,13.0,40,-99.99,,,-99.99,565.299988,,2013-04-06 18:42:00,
2013-04-06 12:52:00,59.0,35.0,-100.00,East,99,9.0,13.0,39,-99.99,,,-99.99,437.100006,,2013-04-06 18:52:00,
2013-04-06 13:02:00,60.0,34.0,-100.00,East,91,8.0,10.0,37,-99.99,,,-99.99,523.900024,,2013-04-06 19:02:00,
2013-04-06 13:12:00,61.0,34.0,-100.00,East,96,4.0,7.0,36,-99.99,,,-99.99,681.400024,,2013-04-06 19:12:00,
2013-04-06 13:22:00,63.0,34.0,-100.00,ESE,116,4.0,7.0,34,-99.99,,,-99.99,641.500000,,2013-04-06 19:22:00,
2013-04-06 13:32:00,63.0,33.0,-100.00,NE,56,3.0,5.0,32,-99.99,,,-99.99,550.900024,,2013-04-06 19:32:00,
2013-04-06 13:42:00,62.0,33.0,-100.00,NNW,348,6.0,9.0,33,-99.99,,,-99.99,947.000000,,2013-04-06 19:42:00,
2013-04-06 13:52:00,64.0,34.0,-100.00,West,270,4.0,9.0,33,-99.99,,,-99.99,915.000000,,2013-04-06 19:52:00,
2013-04-06 14:02:00,64.0,33.0,-100.00,West,271,2.0,10.0,31,-99.99,,,-99.99,785.500000,,2013-04-06 20:02:00,
2013-04-06 14:12:00,63.0,32.0,-100.00,NW,317,5.0,10.0,30,-99.99,,,-99.99,617.599976,,2013-04-06 20:12:00,
2013-04-06 14:22:00,63.0,30.0,-100.00,WNW,284,15.0,18.0,28,-99.99,,,-99.99,506.799988,,2013-04-06 20:22:00,
2013-04-06 14:32:00,62.0,31.0,-100.00,West,267,13.0,15.0,30,-99.99,,,-99.99,437.200012,,2013-04-06 20:32:00,
2013-04-06 14:42:00,63.0,32.0,-100.00,WSW,254,5.0,11.0,30,-99.99,,,-99.99,448.799988,,2013-04-06 20:42:00,
2013-04-06 14:52:00,63.0,29.0,-100.00,SW,222,12.0,14.0,27,-99.99,,,-99.99,439.600006,,2013-04-06 20:52:00,
2013-04-06 15:02:00,63.0,29.0,-100.00,SSW,208,13.0,16.0,28,-99.99,,,-99.99,478.200012,,2013-04-06 21:02:00,
2013-04-06 15:12:00,63.0,28.0,-100.00,SW,226,12.0,17.0,26,-99.99,,,-99.99,420.399994,,2013-04-06 21:12:00,
2013-04-06 15:22:00,63.0,28.0,-100.00,SW,226,12.0,17.0,26,-99.99,,,-99.99,420.399994,,2013-04-06 21:22:00,
2013-04-06 15:33:00,63.0,28.0,-100.00,West,270,18.0,20.0,26,-99.99,,,-99.99,461.899994,,2013-04-06 21:33:00,
2013-04-06 15:43:00,62.0,27.0,-100.00,West,281,15.0,23.0,25,-99.99,,,-99.99,338.399994,,2013-04-06 21:43:00,
2013-04-06 15:52:00,62.0,27.0,-100.00,West,280,15.0,23.0,26,-99.99,,,-99.99,389.899994,,2013-04-06 21:52:00,
2013-04-06 16:02:00,62.0,26.0,-100.00,WNW,288,19.0,24.0,25,-99.99,,,-99.99,271.899994,,2013-04-06 22:02:00,
2013-04-06 16:12:00,62.0,27.0,-100.00,WNW,289,11.0,23.0,25,-99.99,,,-99.99,398.399994,,2013-04-06 22:12:00,
2013-04-06 16:22:00,62.0,27.0,-100.00,West,277,6.0,14.0,26,-99.99,,,-99.99,313.100006,,2013-04-06 22:22:00,
2013-04-06 16:33:00,65.0,30.0,-100.00,WNW,297,12.0,15.0,27,-99.99,,,-99.99,637.400024,,2013-04-06 22:33:00,
2013-04-06 16:42:00,64.0,28.0,-100.00,WNW,293,9.0,19.0,25,-99.99,,,-99.99,761.099976,,2013-04-06 22:42:00,
2013-04-06 16:52:00,63.0,30.0,-100.00,NW,311,12.0,14.0,29,-99.99,,,-99.99,426.600006,,2013-04-06 22:52:00,
2013-04-06 17:02:00,63.0,30.0,-100.00,NW,320,10.0,12.0,29,-99.99,,,-99.99,428.100006,,2013-04-06 23:02:00,
2013-04-06 17:13:00,64.0,29.0,-100.00,WNW,292,14.0,20.0,27,-99.99,,,-99.99,604.099976,,2013-04-06 23:13:00,
2013-04-06 17:22:00,62.0,29.0,-100.00,SW,232,7.0,15.0,28,-99.99,,,-99.99,319.799988,,2013-04-06 23:22:00,
2013-04-06 17:33:00,65.0,30.0,-100.00,West,266,10.0,14.0,26,-99.99,,,-99.99,783.700012,,2013-04-06 23:33:00,
2013-04-06 17:42:00,64.0,29.0,-100.00,NW,305,9.0,17.0,26,-99.99,,,-99.99,533.000000,,2013-04-06 23:42:00,
2013-04-06 17:52:00,65.0,29.0,-100.00,West,265,10.0,21.0,25,-99.99,,,-99.99,660.599976,,2013-04-06 23:52:00,
2013-04-06 18:02:00,65.0,26.0,-100.00,WNW,300,12.0,16.0,22,-99.99,,,-99.99,599.900024,,2013-04-07 00:02:00,
2013-04-06 18:12:00,64.0,22.0,-100.00,WNW,282,16.0,23.0,19,-99.99,,,-99.99,569.299988,,2013-04-07 00:12:00,
2013-04-06 18:22:00,65.0,24.0,-100.00,West,279,14.0,18.0,21,-99.99,,,-99.99,472.899994,,2013-04-07 00:22:00,
2013-04-06 18:32:00,65.0,25.0,-100.00,West,279,13.0,18.0,21,-99.99,,,-99.99,455.000000,,2013-04-07 00:32:00,
2013-04-06 18:42:00,65.0,25.0,-100.00,West,279,13.0,18.0,21,-99.99,,,-99.99,455.000000,,2013-04-07 00:42:00,
2013-04-06 18:52:00,62.0,26.0,-100.00,WNW,299,11.0,15.0,25,-99.99,,,-99.99,156.800003,,2013-04-07 00:52:00,
2013-04-06 19:02:00,62.0,26.0,-100.00,NW,304,9.0,11.0,25,-99.99,,,-99.99,241.500000,,2013-04-07 01:02:00,
2013-04-06 19:12:00,63.0,27.0,-100.00,West,280,7.0,10.0,25,-99.99,,,-99.99,274.299988,,2013-04-07 01:12:00,
2013-04-06 19:22:00,63.0,26.0,-100.00,WNW,293,10.0,11.0,24,-99.99,,,-99.99,149.699997,,2013-04-07 01:22:00,
2013-04-06 19:32:00,61.0,25.0,-100.00,NW,316,9.0,11.0,25,-99.99,,,-99.99,76.089996,,2013-04-07 01:32:00,
2013-04-06 19:42:00,60.0,26.0,-100.00,NW,325,8.0,11.0,27,-99.99,,,-99.99,67.339996,,2013-04-07 01:42:00,
2013-04-06 19:52:00,59.0,27.0,-100.00,NNW,334,7.0,8.0,28,-99.99,,,-99.99,40.099998,,2013-04-07 01:52:00,
2013-04-06 20:02:00,57.0,34.0,-100.00,NE,43,14.0,17.0,42,-99.99,,,-99.99,29.370001,,2013-04-07 02:02:00,
2013-04-06 20:12:00,55.0,34.0,-100.00,NNE,29,12.0,16.0,44,-99.99,,,-99.99,16.100000,,2013-04-07 02:12:00,
2013-04-06 20:22:00,55.0,34.0,-100.00,NE,38,12.0,17.0,45,-99.99,,,-99.99,10.260000,,2013-04-07 02:22:00,
2013-04-06 20:32:00,55.0,34.0,-100.00,NE,36,12.0,14.0,45,-99.99,,,-99.99,3.310000,,2013-04-07 02:32:00,
2013-04-06 20:42:00,54.0,33.0,-100.00,NNE,17,11.0,14.0,43,-99.99,,,-99.99,0.610000,,2013-04-07 02:42:00,
2013-04-06 20:52:00,54.0,32.0,-100.00,NNE,24,9.0,14.0,43,-99.99,,,-99.99,0.180000,,2013-04-07 02:52:00,
2013-04-06 21:02:00,53.0,32.0,-100.00,NNW,330,8.0,10.0,45,-99.99,,,-99.99,0.020000,,2013-04-07 03:02:00,
2013-04-06 21:12:00,53.0,32.0,-100.00,North,356,6.0,7.0,44,-99.99,,,-99.99,0.010000,,2013-04-07 03:12:00,
2013-04-06 21:22:00,52.0,32.0,-100.00,NNE,18,5.0,7.0,45,-99.99,,,-99.99,0.000000,,2013-04-07 03:22:00,
2013-04-06 21:33:00,52.0,33.0,-100.00,NNW,344,7.0,7.0,47,-99.99,,,-99.99,0.000000,,2013-04-07 03:33:00,
2013-04-06 21:43:00,52.0,34.0,-100.00,North,359,5.0,6.0,50,-99.99,,,-99.99,0.000000,,2013-04-07 03:43:00,
2013-04-06 21:52:00,51.0,34.0,-100.00,NW,324,4.0,5.0,52,-99.99,,,-99.99,0.000000,,2013-04-07 03:52:00,
2013-04-06 22:02:00,51.0,35.0,-100.00,NW,307,3.0,4.0,55,-99.99,,,-99.99,0.000000,,2013-04-07 04:02:00,
2013-04-06 22:12:00,50.0,35.0,-100.00,SSE,151,2.0,2.0,57,-99.99,,,-99.99,0.000000,,2013-04-07 04:12:00,
2013-04-06 22:23:00,48.0,34.0,-100.00,East,101,3.0,3.0,58,-99.99,,,-99.99,0.000000,,2013-04-07 04:23:00,
2013-04-06 22:32:00,48.0,35.0,-100.00,SE,132,3.0,4.0,59,-99.99,,,-99.99,0.000000,,2013-04-07 04:32:00,
2013-04-06 22:43:00,47.0,35.0,-100.00,South,174,4.0,5.0,63,-99.99,,,-99.99,0.000000,,2013-04-07 04:43:00,
2013-04-06 22:52:00,47.0,35.0,-100.00,SSE,157,3.0,5.0,63,-99.99,,,-99.99,0.000000,,2013-04-07 04:52:00,
2013-04-06 23:02:00,47.0,35.0,-100.00,South,174,4.0,5.0,64,-99.99,,,-99.99,0.000000,,2013-04-07 05:02:00,
2013-04-06 23:12:00,45.0,35.0,-100.00,SSE,151,3.0,4.0,68,-99.99,,,-99.99,0.000000,,2013-04-07 05:12:00,
2013-04-06 23:22:00,45.0,35.0,-100.00,South,171,4.0,4.0,69,-99.99,,,-99.99,0.000000,,2013-04-07 05:22:00,
2013-04-06 23:32:00,43.0,34.0,-100.00,SSE,162,5.0,6.0,69,-99.99,,,-99.99,0.000000,,2013-04-07 05:32:00,
2013-04-06 23:42:00,42.0,35.0,-100.00,SE,146,3.0,4.0,73,-99.99,,,-99.99,0.000000,,2013-04-07 05:42:00,